Impacts TAF Board
For situational awareness. Not to be used for flight planning purposes.
IDs:

KFMY - Fort Myers/Page Fld, FL, US

Issued at 1740 UTC 21 Sep 2021
Updated at 2035 UTC 21 Sep 2021
Potential Impact None Slight Moderate High
Time2027Z 21/21Z 21/22Z 21/23Z 22/00Z 22/01Z 22/02Z 22/03Z 22/04Z 22/05Z 22/06Z 22/07Z 22/08Z 22/09Z>>
Type OBS PRVL
  [TEMP]  
PRVL PRVL PRVL PRVL PRVL PRVL PRVL PRVL PRVL PRVL PRVL PRVL
VIS 6 >6
  [2]  
>6 >6 >6 >6 >6 >6 >6 >6 >6 >6 >6 >6
CIG 120 50
  [30]  
50 50 50 50 250 250 250 250 250 250 250 250
Cover BKN BKN
  [BKN]  
BKN BKN BKN BKN BKN BKN BKN BKN BKN BKN BKN BKN
FltCat VFR VFR
  [IFR]  
VFR VFR VFR VFR VFR VFR VFR VFR VFR VFR VFR VFR
WX RA BR VCTS
  [+TSRA]  
VCTS VCTS VCTS VCTS -- -- -- -- -- -- -- --
WDir 100 280
[VRB]
90 90 90 90 VRB VRB VRB VRB VRB VRB VRB VRB
WSpd 3 6
  [15]  
7 7 7 7 3 3 3 3 3 3 3 3
WGst -- --
  [25]  
-- -- -- -- -- -- -- -- -- -- -- --
Raw TAF
KFMY 211740Z 2118/2218 28006KT P6SM VCTS SCT030CB BKN050
  TEMPO 2118/2122 VRB15G25KT 2SM +TSRA BKN030CB
  FM212200 09007KT P6SM VCTS SCT030CB BKN050
  FM220200 VRB03KT P6SM FEW025 SCT120 BKN250
  FM221500 23004KT P6SM VCSH SCT025 BKN250


Raw METAR
KFMY 212027Z 10003KT 6SM RA BR SCT090 BKN120 24/22 A3000 RMK AO2 P0003 T02440222
KFMY 212012Z 11003KT 6SM VCTS -RA BR SCT090 BKN110 24/22 A3001 RMK AO2 LTG DSNT ALQDS P0002 T02390222
KFMY 212002Z 11003KT 6SM -RA BR BKN090 OVC110 24/22 A3001 RMK AO2 LTG DSNT ALQDS P0001 T02390222
KFMY 211953Z 09005KT 5SM VCTS -RA BR FEW075 BKN100 OVC120 24/23 A3001 RMK AO2 LTG DSNT ALQDS TSE40 SLP164 P0025 T02440228
KFMY 211946Z 06005KT 4SM VCTS -RA BR SCT080 OVC100 24/22 A3002 RMK AO2 LTG DSNT ALQDS TSE40 P0025 T02440222
KFMY 211938Z 07004KT 3SM TSRA BR BKN075 BKN095 OVC110 24/22 A3002 RMK AO2 LTG DSNT ALQDS P0023 T02440222
KFMY 211928Z 00000KT 1 1/2SM +TSRA BR FEW055 BKN070 OVC090 24/23 A3002 RMK AO2 LTG DSNT N AND E AND S P0020 T02440228
KFMY 211908Z 03004KT 2SM +TSRA BR OVC060 25/23 A3002 RMK AO2 LTG DSNT ALQDS P0008 T02500228
KFMY 211856Z 07005KT 3SM TSRA BKN049 OVC070 25/22 A3002 RMK AO2 LTG DSNT NE-SE P0001 T02500222
KFMY 211853Z 03006KT 1 3/4SM TSRA BR SCT043 OVC070 24/22 A3002 RMK AO2 VIS 1/2V4 LTG DSNT NE-SE TSB00E19B23 SLP167 P0054 T02440222
KFMY 211812Z 15011KT 2 1/2SM +TSRA FEW025 BKN037 OVC060 26/23 A3002 RMK AO2 LTG DSNT NE-S TSB00 P0004 T02560228
KFMY 211807Z 18011G19KT 7SM -TSRA FEW025 BKN029 OVC036 26/23 A3002 RMK AO2 LTG DSNT NE-S TSB00 P0001 T02560228
KFMY 211800Z 18010G22KT 4SM -TSRA FEW027 BKN033 OVC065 26/23 A3001 RMK AO2 LTG DSNT NE-S TSB00 P0001 T02610233
KFMY 211753Z 16016G22KT 8SM -RA SCT027 BKN037 OVC065 28/24 A3000 RMK AO2 LTG DSNT NE AND S RAB52 SLP162 P0000 60000 T02780239 10322 20244 58017

METAR Board
Radar Display
Forecast Discussion
For situational awareness. Not to be used for flight planning purposes.